AIRPORT ID: KEDG

DATE: 2024-05-27 ZULU TIME: 22.35 LOCAL TIME: 18.35


METAR KEDG 272235Z AUTO 23013G19KT 10SM 25/23 A2972

ALTIMETER: A2972 Q1006

DENSITY ALT: 1300 Ft

WIND DIRECT: 220

WIND SPEED: 13 Gust

WIND CONDITIONS:

VISIBILTY: 10SM 9999M

TEMPERATURE: 77 F 25 C

DEW POINT: 73 F 23 C

HUMID: 87%

LCL: 1,000-3,000 feet

RADIO CHECK: 0

ADVISARIES: 0

GREETINGS: 0

CONVERSATIONS: 0